sensor_id;sensor_type;location;lat;lon;timestamp;pressure;altitude;pressure_sealevel;temperature
11849;BMP180;5983;49.966;8.052;2023-06-19T00:01:42;100064.00;;;23.00
11849;BMP180;5983;49.966;8.052;2023-06-19T00:04:10;100052.00;;;23.10
11849;BMP180;5983;49.966;8.052;2023-06-19T00:06:37;100046.00;;;23.10
11849;BMP180;5983;49.966;8.052;2023-06-19T00:09:07;100039.00;;;23.10
11849;BMP180;5983;49.966;8.052;2023-06-19T00:11:34;100036.00;;;23.20
11849;BMP180;5983;49.966;8.052;2023-06-19T00:14:01;100026.00;;;23.20
11849;BMP180;5983;49.966;8.052;2023-06-19T00:16:28;100023.00;;;23.20
11849;BMP180;5983;49.966;8.052;2023-06-19T00:18:55;100022.00;;;23.20
11849;BMP180;5983;49.966;8.052;2023-06-19T00:21:22;100023.00;;;23.20
11849;BMP180;5983;49.966;8.052;2023-06-19T00:23:50;100018.00;;;23.30
11849;BMP180;5983;49.966;8.052;2023-06-19T00:26:19;100018.00;;;23.20
11849;BMP180;5983;49.966;8.052;2023-06-19T00:28:48;100013.00;;;23.10
11849;BMP180;5983;49.966;8.052;2023-06-19T00:31:15;100003.00;;;23.00
11849;BMP180;5983;49.966;8.052;2023-06-19T00:33:42;100012.00;;;22.90
11849;BMP180;5983;49.966;8.052;2023-06-19T00:36:10;100006.00;;;22.80
11849;BMP180;5983;49.966;8.052;2023-06-19T00:38:37;100001.00;;;22.70
11849;BMP180;5983;49.966;8.052;2023-06-19T00:41:04;100002.00;;;22.70
11849;BMP180;5983;49.966;8.052;2023-06-19T00:43:33;99993.00;;;22.70
11849;BMP180;5983;49.966;8.052;2023-06-19T00:46:02;99999.00;;;22.70
11849;BMP180;5983;49.966;8.052;2023-06-19T00:48:31;100009.00;;;22.70
11849;BMP180;5983;49.966;8.052;2023-06-19T00:51:00;100011.00;;;22.60
11849;BMP180;5983;49.966;8.052;2023-06-19T00:53:27;100012.00;;;22.60
11849;BMP180;5983;49.966;8.052;2023-06-19T00:55:56;100006.00;;;22.50
11849;BMP180;5983;49.966;8.052;2023-06-19T00:58:24;100002.00;;;22.50
11849;BMP180;5983;49.966;8.052;2023-06-19T01:00:53;100018.00;;;22.40
11849;BMP180;5983;49.966;8.052;2023-06-19T01:03:19;100024.00;;;22.40
11849;BMP180;5983;49.966;8.052;2023-06-19T01:05:48;100026.00;;;22.30
11849;BMP180;5983;49.966;8.052;2023-06-19T01:08:41;100056.00;;;22.20
11849;BMP180;5983;49.966;8.052;2023-06-19T01:11:11;100054.00;;;22.20
11849;BMP180;5983;49.966;8.052;2023-06-19T01:13:45;100063.00;;;22.10
11849;BMP180;5983;49.966;8.052;2023-06-19T01:16:15;100062.00;;;22.10
11849;BMP180;5983;49.966;8.052;2023-06-19T01:18:43;100068.00;;;22.00
11849;BMP180;5983;49.966;8.052;2023-06-19T01:21:11;100061.00;;;22.00
11849;BMP180;5983;49.966;8.052;2023-06-19T01:23:40;100052.00;;;22.10
11849;BMP180;5983;49.966;8.052;2023-06-19T01:26:08;100048.00;;;22.10
11849;BMP180;5983;49.966;8.052;2023-06-19T01:28:38;100046.00;;;22.10
11849;BMP180;5983;49.966;8.052;2023-06-19T01:31:23;100045.00;;;22.20
11849;BMP180;5983;49.966;8.052;2023-06-19T01:33:52;100056.00;;;22.20
11849;BMP180;5983;49.966;8.052;2023-06-19T01:36:23;100048.00;;;22.20
11849;BMP180;5983;49.966;8.052;2023-06-19T01:38:56;100049.00;;;22.20
11849;BMP180;5983;49.966;8.052;2023-06-19T01:41:25;100060.00;;;22.20
11849;BMP180;5983;49.966;8.052;2023-06-19T01:43:53;100051.00;;;22.10
11849;BMP180;5983;49.966;8.052;2023-06-19T01:46:20;100065.00;;;22.10
11849;BMP180;5983;49.966;8.052;2023-06-19T01:48:47;100065.00;;;22.10
11849;BMP180;5983;49.966;8.052;2023-06-19T01:51:14;100065.00;;;22.20
11849;BMP180;5983;49.966;8.052;2023-06-19T01:53:40;100078.00;;;22.30
11849;BMP180;5983;49.966;8.052;2023-06-19T01:56:09;100080.00;;;22.40
11849;BMP180;5983;49.966;8.052;2023-06-19T01:58:36;100081.00;;;22.40
11849;BMP180;5983;49.966;8.052;2023-06-19T02:01:02;100084.00;;;22.50
11849;BMP180;5983;49.966;8.052;2023-06-19T02:03:29;100081.00;;;22.50
11849;BMP180;5983;49.966;8.052;2023-06-19T02:05:56;100082.00;;;22.50
11849;BMP180;5983;49.966;8.052;2023-06-19T02:08:24;100087.00;;;22.60
11849;BMP180;5983;49.966;8.052;2023-06-19T02:10:51;100091.00;;;22.60
11849;BMP180;5983;49.966;8.052;2023-06-19T02:13:19;100093.00;;;22.50
11849;BMP180;5983;49.966;8.052;2023-06-19T02:15:45;100089.00;;;22.60
11849;BMP180;5983;49.966;8.052;2023-06-19T02:18:12;100093.00;;;22.60
11849;BMP180;5983;49.966;8.052;2023-06-19T02:20:39;100095.00;;;22.60
11849;BMP180;5983;49.966;8.052;2023-06-19T02:23:06;100094.00;;;22.60
11849;BMP180;5983;49.966;8.052;2023-06-19T02:25:33;100091.00;;;22.60
11849;BMP180;5983;49.966;8.052;2023-06-19T02:28:00;100087.00;;;22.50
11849;BMP180;5983;49.966;8.052;2023-06-19T02:30:30;100086.00;;;22.50
11849;BMP180;5983;49.966;8.052;2023-06-19T02:32:57;100090.00;;;22.40
11849;BMP180;5983;49.966;8.052;2023-06-19T02:35:24;100103.00;;;22.30
11849;BMP180;5983;49.966;8.052;2023-06-19T02:37:51;100101.00;;;22.30
11849;BMP180;5983;49.966;8.052;2023-06-19T02:40:18;100106.00;;;22.30
11849;BMP180;5983;49.966;8.052;2023-06-19T02:42:44;100105.00;;;22.20
11849;BMP180;5983;49.966;8.052;2023-06-19T02:45:11;100114.00;;;22.20
11849;BMP180;5983;49.966;8.052;2023-06-19T02:47:40;100111.00;;;22.20
11849;BMP180;5983;49.966;8.052;2023-06-19T02:50:07;100121.00;;;22.20
11849;BMP180;5983;49.966;8.052;2023-06-19T02:52:34;100116.00;;;22.10
11849;BMP180;5983;49.966;8.052;2023-06-19T02:55:01;100116.00;;;22.20
11849;BMP180;5983;49.966;8.052;2023-06-19T02:57:28;100128.00;;;22.20
11849;BMP180;5983;49.966;8.052;2023-06-19T02:59:55;100121.00;;;22.20
11849;BMP180;5983;49.966;8.052;2023-06-19T03:02:22;100119.00;;;22.20
11849;BMP180;5983;49.966;8.052;2023-06-19T03:04:52;100123.00;;;22.20
11849;BMP180;5983;49.966;8.052;2023-06-19T03:07:19;100131.00;;;22.20
11849;BMP180;5983;49.966;8.052;2023-06-19T03:09:46;100132.00;;;22.20
11849;BMP180;5983;49.966;8.052;2023-06-19T03:12:13;100141.00;;;22.20
11849;BMP180;5983;49.966;8.052;2023-06-19T03:14:39;100148.00;;;22.20
11849;BMP180;5983;49.966;8.052;2023-06-19T03:17:06;100142.00;;;22.30
11849;BMP180;5983;49.966;8.052;2023-06-19T03:19:33;100145.00;;;22.30
11849;BMP180;5983;49.966;8.052;2023-06-19T03:22:02;100155.00;;;22.30
11849;BMP180;5983;49.966;8.052;2023-06-19T03:24:29;100147.00;;;22.30
11849;BMP180;5983;49.966;8.052;2023-06-19T03:26:56;100149.00;;;22.30
11849;BMP180;5983;49.966;8.052;2023-06-19T03:29:23;100148.00;;;22.30
11849;BMP180;5983;49.966;8.052;2023-06-19T03:31:49;100161.00;;;22.30
11849;BMP180;5983;49.966;8.052;2023-06-19T03:34:17;100166.00;;;22.30
11849;BMP180;5983;49.966;8.052;2023-06-19T03:36:43;100173.00;;;22.30
11849;BMP180;5983;49.966;8.052;2023-06-19T03:39:12;100178.00;;;22.30
11849;BMP180;5983;49.966;8.052;2023-06-19T03:41:39;100188.00;;;22.30
11849;BMP180;5983;49.966;8.052;2023-06-19T03:44:06;100193.00;;;22.30
11849;BMP180;5983;49.966;8.052;2023-06-19T03:46:33;100192.00;;;22.20
11849;BMP180;5983;49.966;8.052;2023-06-19T03:49:00;100190.00;;;22.20
11849;BMP180;5983;49.966;8.052;2023-06-19T03:51:28;100191.00;;;22.20
11849;BMP180;5983;49.966;8.052;2023-06-19T03:53:55;100198.00;;;22.20
11849;BMP180;5983;49.966;8.052;2023-06-19T03:56:23;100201.00;;;22.10
11849;BMP180;5983;49.966;8.052;2023-06-19T03:58:50;100208.00;;;22.10
11849;BMP180;5983;49.966;8.052;2023-06-19T04:01:17;100197.00;;;22.10
11849;BMP180;5983;49.966;8.052;2023-06-19T04:03:44;100204.00;;;22.10
11849;BMP180;5983;49.966;8.052;2023-06-19T04:06:11;100197.00;;;22.10
11849;BMP180;5983;49.966;8.052;2023-06-19T04:08:38;100212.00;;;22.10
11849;BMP180;5983;49.966;8.052;2023-06-19T04:11:05;100211.00;;;22.10
11849;BMP180;5983;49.966;8.052;2023-06-19T04:13:33;100214.00;;;22.10
11849;BMP180;5983;49.966;8.052;2023-06-19T04:16:00;100205.00;;;22.10
11849;BMP180;5983;49.966;8.052;2023-06-19T04:18:27;100214.00;;;22.10
11849;BMP180;5983;49.966;8.052;2023-06-19T04:20:54;100220.00;;;22.10
11849;BMP180;5983;49.966;8.052;2023-06-19T04:23:21;100215.00;;;22.20
11849;BMP180;5983;49.966;8.052;2023-06-19T04:25:48;100216.00;;;22.20
11849;BMP180;5983;49.966;8.052;2023-06-19T04:28:15;100211.00;;;22.20
11849;BMP180;5983;49.966;8.052;2023-06-19T04:30:43;100215.00;;;22.30
11849;BMP180;5983;49.966;8.052;2023-06-19T04:33:10;100215.00;;;22.40
11849;BMP180;5983;49.966;8.052;2023-06-19T04:35:37;100214.00;;;22.40
11849;BMP180;5983;49.966;8.052;2023-06-19T04:38:05;100209.00;;;22.50
11849;BMP180;5983;49.966;8.052;2023-06-19T04:40:32;100208.00;;;22.60
11849;BMP180;5983;49.966;8.052;2023-06-19T04:43:01;100210.00;;;22.60
11849;BMP180;5983;49.966;8.052;2023-06-19T04:45:31;100213.00;;;22.70
11849;BMP180;5983;49.966;8.052;2023-06-19T04:47:59;100210.00;;;22.70
11849;BMP180;5983;49.966;8.052;2023-06-19T04:50:28;100202.00;;;22.80
11849;BMP180;5983;49.966;8.052;2023-06-19T04:52:55;100215.00;;;22.80
11849;BMP180;5983;49.966;8.052;2023-06-19T04:55:22;100220.00;;;22.90
11849;BMP180;5983;49.966;8.052;2023-06-19T04:57:51;100207.00;;;22.90
11849;BMP180;5983;49.966;8.052;2023-06-19T05:00:19;100205.00;;;23.00
11849;BMP180;5983;49.966;8.052;2023-06-19T05:02:49;100206.00;;;23.00
11849;BMP180;5983;49.966;8.052;2023-06-19T05:05:17;100211.00;;;23.00
11849;BMP180;5983;49.966;8.052;2023-06-19T05:07:44;100205.00;;;23.10
11849;BMP180;5983;49.966;8.052;2023-06-19T05:10:12;100207.00;;;23.10
11849;BMP180;5983;49.966;8.052;2023-06-19T05:12:39;100212.00;;;23.10
11849;BMP180;5983;49.966;8.052;2023-06-19T05:15:07;100219.00;;;23.20
11849;BMP180;5983;49.966;8.052;2023-06-19T05:17:35;100216.00;;;23.20
11849;BMP180;5983;49.966;8.052;2023-06-19T05:20:05;100217.00;;;23.20
11849;BMP180;5983;49.966;8.052;2023-06-19T05:22:35;100218.00;;;23.20
11849;BMP180;5983;49.966;8.052;2023-06-19T05:25:03;100216.00;;;23.20
11849;BMP180;5983;49.966;8.052;2023-06-19T05:27:30;100224.00;;;23.20
11849;BMP180;5983;49.966;8.052;2023-06-19T05:29:56;100215.00;;;23.30
11849;BMP180;5983;49.966;8.052;2023-06-19T05:32:23;100221.00;;;23.30
11849;BMP180;5983;49.966;8.052;2023-06-19T05:34:50;100216.00;;;23.30
11849;BMP180;5983;49.966;8.052;2023-06-19T05:37:17;100237.00;;;23.40
11849;BMP180;5983;49.966;8.052;2023-06-19T05:39:45;100238.00;;;23.40
11849;BMP180;5983;49.966;8.052;2023-06-19T05:42:12;100232.00;;;23.40
11849;BMP180;5983;49.966;8.052;2023-06-19T05:44:39;100243.00;;;23.40
11849;BMP180;5983;49.966;8.052;2023-06-19T05:47:06;100244.00;;;23.40
11849;BMP180;5983;49.966;8.052;2023-06-19T05:49:33;100238.00;;;23.50
11849;BMP180;5983;49.966;8.052;2023-06-19T05:52:00;100247.00;;;23.60
11849;BMP180;5983;49.966;8.052;2023-06-19T05:54:27;100251.00;;;23.60
11849;BMP180;5983;49.966;8.052;2023-06-19T05:56:55;100264.00;;;23.60
11849;BMP180;5983;49.966;8.052;2023-06-19T05:59:22;100255.00;;;23.70
11849;BMP180;5983;49.966;8.052;2023-06-19T06:01:49;100253.00;;;23.70
11849;BMP180;5983;49.966;8.052;2023-06-19T06:04:18;100245.00;;;23.70
11849;BMP180;5983;49.966;8.052;2023-06-19T06:06:47;100252.00;;;23.70
11849;BMP180;5983;49.966;8.052;2023-06-19T06:09:14;100255.00;;;23.80
11849;BMP180;5983;49.966;8.052;2023-06-19T06:11:41;100262.00;;;23.80
11849;BMP180;5983;49.966;8.052;2023-06-19T06:14:10;100274.00;;;23.80
11849;BMP180;5983;49.966;8.052;2023-06-19T06:16:36;100264.00;;;23.90
11849;BMP180;5983;49.966;8.052;2023-06-19T06:19:03;100260.00;;;23.90
11849;BMP180;5983;49.966;8.052;2023-06-19T06:21:30;100255.00;;;24.00
11849;BMP180;5983;49.966;8.052;2023-06-19T06:23:57;100260.00;;;23.90
11849;BMP180;5983;49.966;8.052;2023-06-19T06:26:24;100254.00;;;24.00
11849;BMP180;5983;49.966;8.052;2023-06-19T06:28:53;100250.00;;;24.00
11849;BMP180;5983;49.966;8.052;2023-06-19T06:31:22;100257.00;;;24.00
11849;BMP180;5983;49.966;8.052;2023-06-19T06:33:49;100257.00;;;24.20
11849;BMP180;5983;49.966;8.052;2023-06-19T06:36:16;100256.00;;;24.30
11849;BMP180;5983;49.966;8.052;2023-06-19T06:38:43;100267.00;;;24.40
11849;BMP180;5983;49.966;8.052;2023-06-19T06:41:10;100276.00;;;24.50
11849;BMP180;5983;49.966;8.052;2023-06-19T06:43:37;100259.00;;;24.50
11849;BMP180;5983;49.966;8.052;2023-06-19T06:46:05;100257.00;;;24.60
11849;BMP180;5983;49.966;8.052;2023-06-19T06:48:34;100257.00;;;24.70
11849;BMP180;5983;49.966;8.052;2023-06-19T06:51:01;100258.00;;;24.90
11849;BMP180;5983;49.966;8.052;2023-06-19T06:53:28;100256.00;;;25.00
11849;BMP180;5983;49.966;8.052;2023-06-19T06:55:57;100265.00;;;25.00
11849;BMP180;5983;49.966;8.052;2023-06-19T06:58:25;100274.00;;;25.00
11849;BMP180;5983;49.966;8.052;2023-06-19T07:00:52;100273.00;;;25.00
11849;BMP180;5983;49.966;8.052;2023-06-19T07:03:19;100268.00;;;24.90
11849;BMP180;5983;49.966;8.052;2023-06-19T07:05:47;100273.00;;;24.90
11849;BMP180;5983;49.966;8.052;2023-06-19T07:08:14;100274.00;;;25.00
11849;BMP180;5983;49.966;8.052;2023-06-19T07:10:41;100288.00;;;25.20
11849;BMP180;5983;49.966;8.052;2023-06-19T07:13:08;100282.00;;;25.20
11849;BMP180;5983;49.966;8.052;2023-06-19T07:15:35;100282.00;;;25.20
11849;BMP180;5983;49.966;8.052;2023-06-19T07:18:02;100287.00;;;25.20
11849;BMP180;5983;49.966;8.052;2023-06-19T07:20:29;100293.00;;;25.20
11849;BMP180;5983;49.966;8.052;2023-06-19T07:22:58;100296.00;;;25.30
11849;BMP180;5983;49.966;8.052;2023-06-19T07:25:26;100289.00;;;25.40
11849;BMP180;5983;49.966;8.052;2023-06-19T07:27:52;100283.00;;;25.60
11849;BMP180;5983;49.966;8.052;2023-06-19T07:30:19;100273.00;;;25.80
11849;BMP180;5983;49.966;8.052;2023-06-19T07:32:46;100298.00;;;25.90
11849;BMP180;5983;49.966;8.052;2023-06-19T07:35:13;100291.00;;;26.10
11849;BMP180;5983;49.966;8.052;2023-06-19T07:37:40;100303.00;;;26.20
11849;BMP180;5983;49.966;8.052;2023-06-19T07:40:11;100291.00;;;26.30
11849;BMP180;5983;49.966;8.052;2023-06-19T07:42:38;100298.00;;;26.30
11849;BMP180;5983;49.966;8.052;2023-06-19T07:45:06;100301.00;;;26.40
11849;BMP180;5983;49.966;8.052;2023-06-19T07:47:33;100302.00;;;26.50
11849;BMP180;5983;49.966;8.052;2023-06-19T07:50:00;100299.00;;;26.60
11849;BMP180;5983;49.966;8.052;2023-06-19T07:52:27;100310.00;;;26.80
11849;BMP180;5983;49.966;8.052;2023-06-19T07:54:56;100303.00;;;26.90
11849;BMP180;5983;49.966;8.052;2023-06-19T07:57:26;100316.00;;;27.10
11849;BMP180;5983;49.966;8.052;2023-06-19T07:59:54;100310.00;;;27.30
11849;BMP180;5983;49.966;8.052;2023-06-19T08:02:21;100308.00;;;27.50
11849;BMP180;5983;49.966;8.052;2023-06-19T08:04:48;100316.00;;;27.50
11849;BMP180;5983;49.966;8.052;2023-06-19T08:07:15;100310.00;;;27.40
11849;BMP180;5983;49.966;8.052;2023-06-19T08:09:41;100319.00;;;27.50
11849;BMP180;5983;49.966;8.052;2023-06-19T08:12:09;100326.00;;;27.40
11849;BMP180;5983;49.966;8.052;2023-06-19T08:14:37;100332.00;;;27.30
11849;BMP180;5983;49.966;8.052;2023-06-19T08:17:04;100337.00;;;27.20
11849;BMP180;5983;49.966;8.052;2023-06-19T08:19:31;100333.00;;;27.20
11849;BMP180;5983;49.966;8.052;2023-06-19T08:21:58;100323.00;;;27.30
11849;BMP180;5983;49.966;8.052;2023-06-19T08:24:25;100320.00;;;27.40
11849;BMP180;5983;49.966;8.052;2023-06-19T08:26:52;100326.00;;;27.40
11849;BMP180;5983;49.966;8.052;2023-06-19T08:29:19;100322.00;;;27.40
11849;BMP180;5983;49.966;8.052;2023-06-19T08:31:47;100334.00;;;27.50
11849;BMP180;5983;49.966;8.052;2023-06-19T08:34:14;100338.00;;;27.70
11849;BMP180;5983;49.966;8.052;2023-06-19T08:36:40;100342.00;;;27.70
11849;BMP180;5983;49.966;8.052;2023-06-19T08:39:07;100333.00;;;27.70
11849;BMP180;5983;49.966;8.052;2023-06-19T08:41:35;100331.00;;;27.70
11849;BMP180;5983;49.966;8.052;2023-06-19T08:44:03;100317.00;;;27.90
11849;BMP180;5983;49.966;8.052;2023-06-19T08:46:30;100322.00;;;28.00
11849;BMP180;5983;49.966;8.052;2023-06-19T08:48:58;100335.00;;;28.10
11849;BMP180;5983;49.966;8.052;2023-06-19T08:51:27;100326.00;;;27.90
11849;BMP180;5983;49.966;8.052;2023-06-19T08:54:01;100335.00;;;27.80
11849;BMP180;5983;49.966;8.052;2023-06-19T08:56:29;100332.00;;;27.70
11849;BMP180;5983;49.966;8.052;2023-06-19T08:59:08;100330.00;;;27.90
11849;BMP180;5983;49.966;8.052;2023-06-19T09:01:36;100335.00;;;28.10
11849;BMP180;5983;49.966;8.052;2023-06-19T09:04:10;100335.00;;;28.10
11849;BMP180;5983;49.966;8.052;2023-06-19T09:06:49;100337.00;;;28.20
11849;BMP180;5983;49.966;8.052;2023-06-19T09:09:17;100332.00;;;28.30
11849;BMP180;5983;49.966;8.052;2023-06-19T09:11:56;100335.00;;;28.20
11849;BMP180;5983;49.966;8.052;2023-06-19T09:14:31;100338.00;;;28.10
11849;BMP180;5983;49.966;8.052;2023-06-19T09:16:58;100333.00;;;28.10
11849;BMP180;5983;49.966;8.052;2023-06-19T09:19:26;100331.00;;;28.10
11849;BMP180;5983;49.966;8.052;2023-06-19T09:21:53;100330.00;;;28.20
11849;BMP180;5983;49.966;8.052;2023-06-19T09:24:33;100326.00;;;28.30
11849;BMP180;5983;49.966;8.052;2023-06-19T09:27:07;100317.00;;;28.30
11849;BMP180;5983;49.966;8.052;2023-06-19T09:29:37;100335.00;;;28.40
11849;BMP180;5983;49.966;8.052;2023-06-19T09:32:16;100320.00;;;28.50
11849;BMP180;5983;49.966;8.052;2023-06-19T09:34:44;100322.00;;;28.70
11849;BMP180;5983;49.966;8.052;2023-06-19T09:37:12;100320.00;;;28.70
11849;BMP180;5983;49.966;8.052;2023-06-19T09:39:40;100332.00;;;28.80
11849;BMP180;5983;49.966;8.052;2023-06-19T09:42:09;100338.00;;;28.70
11849;BMP180;5983;49.966;8.052;2023-06-19T09:44:41;100326.00;;;28.60
11849;BMP180;5983;49.966;8.052;2023-06-19T09:47:15;100332.00;;;28.50
11849;BMP180;5983;49.966;8.052;2023-06-19T09:49:50;100330.00;;;28.40
11849;BMP180;5983;49.966;8.052;2023-06-19T09:52:21;100330.00;;;28.60
11849;BMP180;5983;49.966;8.052;2023-06-19T09:54:50;100317.00;;;28.60
11849;BMP180;5983;49.966;8.052;2023-06-19T09:57:17;100325.00;;;28.80
11849;BMP180;5983;49.966;8.052;2023-06-19T09:59:47;100319.00;;;29.00
11849;BMP180;5983;49.966;8.052;2023-06-19T10:02:16;100325.00;;;29.10
11849;BMP180;5983;49.966;8.052;2023-06-19T10:04:53;100331.00;;;29.30
11849;BMP180;5983;49.966;8.052;2023-06-19T10:07:22;100337.00;;;29.40
11849;BMP180;5983;49.966;8.052;2023-06-19T10:10:01;100334.00;;;29.40
11849;BMP180;5983;49.966;8.052;2023-06-19T10:12:41;100339.00;;;29.30
11849;BMP180;5983;49.966;8.052;2023-06-19T10:15:15;100322.00;;;29.50
11849;BMP180;5983;49.966;8.052;2023-06-19T10:17:47;100322.00;;;29.70
11849;BMP180;5983;49.966;8.052;2023-06-19T10:20:27;100316.00;;;29.90
11849;BMP180;5983;49.966;8.052;2023-06-19T10:23:02;100332.00;;;30.10
11849;BMP180;5983;49.966;8.052;2023-06-19T10:25:32;100323.00;;;30.20
11849;BMP180;5983;49.966;8.052;2023-06-19T10:27:59;100325.00;;;30.00
11849;BMP180;5983;49.966;8.052;2023-06-19T10:30:27;100331.00;;;29.80
11849;BMP180;5983;49.966;8.052;2023-06-19T10:32:55;100317.00;;;29.70
11849;BMP180;5983;49.966;8.052;2023-06-19T10:35:24;100331.00;;;29.60
11849;BMP180;5983;49.966;8.052;2023-06-19T10:37:51;100333.00;;;29.40
11849;BMP180;5983;49.966;8.052;2023-06-19T10:40:18;100332.00;;;29.60
11849;BMP180;5983;49.966;8.052;2023-06-19T10:42:46;100324.00;;;29.50
11849;BMP180;5983;49.966;8.052;2023-06-19T10:45:14;100337.00;;;29.40
11849;BMP180;5983;49.966;8.052;2023-06-19T10:47:43;100330.00;;;29.30
11849;BMP180;5983;49.966;8.052;2023-06-19T10:50:12;100333.00;;;29.30
11849;BMP180;5983;49.966;8.052;2023-06-19T10:52:45;100320.00;;;29.20
11849;BMP180;5983;49.966;8.052;2023-06-19T10:55:14;100331.00;;;29.30
11849;BMP180;5983;49.966;8.052;2023-06-19T10:57:45;100319.00;;;29.30
11849;BMP180;5983;49.966;8.052;2023-06-19T11:00:23;100321.00;;;29.30
11849;BMP180;5983;49.966;8.052;2023-06-19T11:02:50;100319.00;;;29.30
11849;BMP180;5983;49.966;8.052;2023-06-19T11:05:20;100311.00;;;29.30
11849;BMP180;5983;49.966;8.052;2023-06-19T11:07:53;100301.00;;;29.30
11849;BMP180;5983;49.966;8.052;2023-06-19T11:10:21;100307.00;;;29.20
11849;BMP180;5983;49.966;8.052;2023-06-19T11:12:49;100302.00;;;29.20
11849;BMP180;5983;49.966;8.052;2023-06-19T11:15:16;100310.00;;;29.30
11849;BMP180;5983;49.966;8.052;2023-06-19T11:17:43;100301.00;;;29.40
11849;BMP180;5983;49.966;8.052;2023-06-19T11:20:11;100309.00;;;29.50
11849;BMP180;5983;49.966;8.052;2023-06-19T11:22:41;100313.00;;;29.50
11849;BMP180;5983;49.966;8.052;2023-06-19T11:25:10;100302.00;;;29.40
11849;BMP180;5983;49.966;8.052;2023-06-19T11:27:39;100294.00;;;29.40
11849;BMP180;5983;49.966;8.052;2023-06-19T11:30:07;100291.00;;;29.40
11849;BMP180;5983;49.966;8.052;2023-06-19T11:32:37;100295.00;;;29.30
11849;BMP180;5983;49.966;8.052;2023-06-19T11:35:10;100288.00;;;29.30
11849;BMP180;5983;49.966;8.052;2023-06-19T11:37:40;100294.00;;;29.50
11849;BMP180;5983;49.966;8.052;2023-06-19T11:40:10;100280.00;;;29.70
11849;BMP180;5983;49.966;8.052;2023-06-19T11:42:48;100277.00;;;29.90
11849;BMP180;5983;49.966;8.052;2023-06-19T11:45:15;100278.00;;;30.00
11849;BMP180;5983;49.966;8.052;2023-06-19T11:47:44;100281.00;;;30.00
11849;BMP180;5983;49.966;8.052;2023-06-19T11:50:12;100276.00;;;30.00
11849;BMP180;5983;49.966;8.052;2023-06-19T11:52:43;100275.00;;;30.20
11849;BMP180;5983;49.966;8.052;2023-06-19T11:55:13;100273.00;;;30.50
11849;BMP180;5983;49.966;8.052;2023-06-19T11:57:41;100274.00;;;30.70
11849;BMP180;5983;49.966;8.052;2023-06-19T12:00:16;100281.00;;;31.00
11849;BMP180;5983;49.966;8.052;2023-06-19T12:02:44;100279.00;;;31.10
11849;BMP180;5983;49.966;8.052;2023-06-19T12:05:13;100276.00;;;31.20
11849;BMP180;5983;49.966;8.052;2023-06-19T12:07:40;100278.00;;;31.40
11849;BMP180;5983;49.966;8.052;2023-06-19T12:10:08;100269.00;;;31.60
11849;BMP180;5983;49.966;8.052;2023-06-19T12:12:38;100275.00;;;31.50
11849;BMP180;5983;49.966;8.052;2023-06-19T12:15:07;100268.00;;;31.50
11849;BMP180;5983;49.966;8.052;2023-06-19T12:17:34;100262.00;;;31.30
11849;BMP180;5983;49.966;8.052;2023-06-19T12:20:02;100264.00;;;31.40
11849;BMP180;5983;49.966;8.052;2023-06-19T12:22:32;100259.00;;;31.50
11849;BMP180;5983;49.966;8.052;2023-06-19T12:24:59;100269.00;;;31.40
11849;BMP180;5983;49.966;8.052;2023-06-19T12:27:26;100262.00;;;31.40
11849;BMP180;5983;49.966;8.052;2023-06-19T12:29:55;100255.00;;;31.30
11849;BMP180;5983;49.966;8.052;2023-06-19T12:32:24;100261.00;;;31.40
11849;BMP180;5983;49.966;8.052;2023-06-19T12:34:51;100258.00;;;31.40
11849;BMP180;5983;49.966;8.052;2023-06-19T12:37:20;100260.00;;;31.30
11849;BMP180;5983;49.966;8.052;2023-06-19T12:39:48;100256.00;;;31.40
11849;BMP180;5983;49.966;8.052;2023-06-19T12:42:16;100263.00;;;31.10
11849;BMP180;5983;49.966;8.052;2023-06-19T12:44:43;100260.00;;;31.20
11849;BMP180;5983;49.966;8.052;2023-06-19T12:47:13;100264.00;;;31.10
11849;BMP180;5983;49.966;8.052;2023-06-19T12:49:40;100266.00;;;31.10
11849;BMP180;5983;49.966;8.052;2023-06-19T12:52:08;100261.00;;;31.10
11849;BMP180;5983;49.966;8.052;2023-06-19T12:54:35;100268.00;;;30.90
11849;BMP180;5983;49.966;8.052;2023-06-19T12:57:02;100268.00;;;31.00
11849;BMP180;5983;49.966;8.052;2023-06-19T12:59:29;100257.00;;;31.00
11849;BMP180;5983;49.966;8.052;2023-06-19T13:01:58;100243.00;;;30.80
11849;BMP180;5983;49.966;8.052;2023-06-19T13:04:26;100252.00;;;30.60
11849;BMP180;5983;49.966;8.052;2023-06-19T13:06:53;100257.00;;;30.50
11849;BMP180;5983;49.966;8.052;2023-06-19T13:09:19;100258.00;;;30.40
11849;BMP180;5983;49.966;8.052;2023-06-19T13:11:46;100258.00;;;30.40
11849;BMP180;5983;49.966;8.052;2023-06-19T13:14:15;100255.00;;;30.40
11849;BMP180;5983;49.966;8.052;2023-06-19T13:16:42;100244.00;;;30.50
11849;BMP180;5983;49.966;8.052;2023-06-19T13:19:08;100245.00;;;30.50
11849;BMP180;5983;49.966;8.052;2023-06-19T13:21:37;100239.00;;;30.50
11849;BMP180;5983;49.966;8.052;2023-06-19T13:24:04;100239.00;;;30.50
11849;BMP180;5983;49.966;8.052;2023-06-19T13:26:31;100241.00;;;30.50
11849;BMP180;5983;49.966;8.052;2023-06-19T13:28:58;100239.00;;;30.60
11849;BMP180;5983;49.966;8.052;2023-06-19T13:31:26;100236.00;;;30.70
11849;BMP180;5983;49.966;8.052;2023-06-19T13:33:53;100235.00;;;30.70
11849;BMP180;5983;49.966;8.052;2023-06-19T13:36:20;100229.00;;;30.80
11849;BMP180;5983;49.966;8.052;2023-06-19T13:38:50;100237.00;;;31.00
11849;BMP180;5983;49.966;8.052;2023-06-19T13:41:18;100233.00;;;31.10
11849;BMP180;5983;49.966;8.052;2023-06-19T13:43:45;100227.00;;;31.10
11849;BMP180;5983;49.966;8.052;2023-06-19T13:46:15;100224.00;;;31.30
11849;BMP180;5983;49.966;8.052;2023-06-19T13:48:42;100225.00;;;31.30
11849;BMP180;5983;49.966;8.052;2023-06-19T13:51:09;100214.00;;;31.30
11849;BMP180;5983;49.966;8.052;2023-06-19T13:53:36;100210.00;;;31.20
11849;BMP180;5983;49.966;8.052;2023-06-19T13:56:04;100211.00;;;31.10
11849;BMP180;5983;49.966;8.052;2023-06-19T13:58:31;100207.00;;;31.00
11849;BMP180;5983;49.966;8.052;2023-06-19T14:00:58;100206.00;;;30.90
11849;BMP180;5983;49.966;8.052;2023-06-19T14:03:25;100212.00;;;30.70
11849;BMP180;5983;49.966;8.052;2023-06-19T14:05:51;100212.00;;;30.60
11849;BMP180;5983;49.966;8.052;2023-06-19T14:08:18;100204.00;;;30.50
11849;BMP180;5983;49.966;8.052;2023-06-19T14:10:45;100201.00;;;30.50
11849;BMP180;5983;49.966;8.052;2023-06-19T14:13:13;100208.00;;;30.60
11849;BMP180;5983;49.966;8.052;2023-06-19T14:15:40;100205.00;;;30.60